sensor_id;sensor_type;location;lat;lon;timestamp;pressure;altitude;pressure_sealevel;temperature;humidity
40920;BME280;26652;50.280;19.026;2024-01-30T00:01:35;148463.13;;;2.50;82.90
40920;BME280;26652;50.280;19.026;2024-01-30T00:03:35;148438.63;;;2.40;83.21
40920;BME280;26652;50.280;19.026;2024-01-30T00:05:36;148441.06;;;2.41;83.52
40920;BME280;26652;50.280;19.026;2024-01-30T00:07:36;148466.81;;;2.51;83.24
40920;BME280;26652;50.280;19.026;2024-01-30T00:09:38;148469.25;;;2.52;83.33
40920;BME280;26652;50.280;19.026;2024-01-30T00:11:39;148458.22;;;2.48;82.85
40920;BME280;26652;50.280;19.026;2024-01-30T00:13:40;148434.94;;;2.38;82.96
40920;BME280;26652;50.280;19.026;2024-01-30T00:15:40;148437.41;;;2.39;83.03
40920;BME280;26652;50.280;19.026;2024-01-30T00:17:41;148434.94;;;2.38;82.80
40920;BME280;26652;50.280;19.026;2024-01-30T00:19:42;148444.75;;;2.42;82.95
40920;BME280;26652;50.280;19.026;2024-01-30T00:21:43;148438.63;;;2.40;83.02
40920;BME280;26652;50.280;19.026;2024-01-30T00:23:43;148460.69;;;2.49;82.66
40920;BME280;26652;50.280;19.026;2024-01-30T00:25:44;148426.38;;;2.35;82.69
40920;BME280;26652;50.280;19.026;2024-01-30T00:27:45;148460.69;;;2.49;82.51
40920;BME280;26652;50.280;19.026;2024-01-30T00:29:45;148448.41;;;2.44;82.38
40920;BME280;26652;50.280;19.026;2024-01-30T00:31:46;148420.25;;;2.32;81.72
40920;BME280;26652;50.280;19.026;2024-01-30T00:33:47;148441.06;;;2.41;82.13
40920;BME280;26652;50.280;19.026;2024-01-30T00:35:47;148427.59;;;2.35;81.74
40920;BME280;26652;50.280;19.026;2024-01-30T00:37:48;148452.09;;;2.45;82.25
40920;BME280;26652;50.280;19.026;2024-01-30T00:39:49;148472.94;;;2.54;82.19
40920;BME280;26652;50.280;19.026;2024-01-30T00:41:49;148443.53;;;2.42;81.55
40920;BME280;26652;50.280;19.026;2024-01-30T00:43:50;148481.50;;;2.57;81.50
40920;BME280;26652;50.280;19.026;2024-01-30T00:45:51;148479.06;;;2.56;81.29
40920;BME280;26652;50.280;19.026;2024-01-30T00:47:55;148483.97;;;2.58;81.09
40920;BME280;26652;50.280;19.026;2024-01-30T00:49:55;148507.25;;;2.68;80.84
40920;BME280;26652;50.280;19.026;2024-01-30T00:51:56;148494.97;;;2.63;80.68
40920;BME280;26652;50.280;19.026;2024-01-30T00:53:57;148508.47;;;2.69;80.23
40920;BME280;26652;50.280;19.026;2024-01-30T00:55:57;148517.03;;;2.72;80.14
40920;BME280;26652;50.280;19.026;2024-01-30T00:57:58;148521.94;;;2.74;79.93
40920;BME280;26652;50.280;19.026;2024-01-30T00:59:59;148507.25;;;2.68;80.31
40920;BME280;26652;50.280;19.026;2024-01-30T01:01:59;148510.91;;;2.70;80.20
40920;BME280;26652;50.280;19.026;2024-01-30T01:04:00;148503.56;;;2.67;79.87
40920;BME280;26652;50.280;19.026;2024-01-30T01:06:01;148494.97;;;2.63;79.92
40920;BME280;26652;50.280;19.026;2024-01-30T01:08:01;148512.13;;;2.70;80.15
40920;BME280;26652;50.280;19.026;2024-01-30T01:10:02;148514.59;;;2.71;79.94
40920;BME280;26652;50.280;19.026;2024-01-30T01:12:04;148530.53;;;2.78;79.71
40920;BME280;26652;50.280;19.026;2024-01-30T01:14:05;148532.97;;;2.79;79.78
40920;BME280;26652;50.280;19.026;2024-01-30T01:16:06;148525.63;;;2.76;79.34
40920;BME280;26652;50.280;19.026;2024-01-30T01:18:06;148519.50;;;2.73;79.82
40920;BME280;26652;50.280;19.026;2024-01-30T01:20:07;148491.31;;;2.61;79.42
40920;BME280;26652;50.280;19.026;2024-01-30T01:22:09;148507.25;;;2.68;79.73
40920;BME280;26652;50.280;19.026;2024-01-30T01:24:09;148510.91;;;2.70;79.32
40920;BME280;26652;50.280;19.026;2024-01-30T01:26:10;148480.28;;;2.57;nan
40920;BME280;26652;50.280;19.026;2024-01-30T01:28:11;148486.41;;;2.59;79.52
40920;BME280;26652;50.280;19.026;2024-01-30T01:30:12;148474.16;;;2.54;80.10
40920;BME280;26652;50.280;19.026;2024-01-30T01:32:18;148470.47;;;2.53;80.09
40920;BME280;26652;50.280;19.026;2024-01-30T01:34:19;148518.28;;;2.73;79.81
40920;BME280;26652;50.280;19.026;2024-01-30T01:36:19;148483.97;;;2.58;79.64
40920;BME280;26652;50.280;19.026;2024-01-30T01:38:20;148483.97;;;2.58;79.64
40920;BME280;26652;50.280;19.026;2024-01-30T01:40:24;148510.91;;;2.70;79.45
40920;BME280;26652;50.280;19.026;2024-01-30T01:42:25;148492.53;;;2.62;79.73
40920;BME280;26652;50.280;19.026;2024-01-30T01:44:26;148472.94;;;2.54;79.92
40920;BME280;26652;50.280;19.026;2024-01-30T01:46:30;148487.63;;;2.60;80.43
40920;BME280;26652;50.280;19.026;2024-01-30T01:48:30;148432.50;;;2.37;80.23
40920;BME280;26652;50.280;19.026;2024-01-30T01:50:31;148430.03;;;2.36;80.62
40920;BME280;26652;50.280;19.026;2024-01-30T01:52:32;148409.22;;;2.27;81.06
40920;BME280;26652;50.280;19.026;2024-01-30T01:54:34;148387.16;;;2.18;82.60
40920;BME280;26652;50.280;19.026;2024-01-30T01:56:35;148382.28;;;2.16;82.25
40920;BME280;26652;50.280;19.026;2024-01-30T01:58:36;148423.91;;;2.34;81.32
40920;BME280;26652;50.280;19.026;2024-01-30T02:00:37;148448.41;;;2.44;81.54
40920;BME280;26652;50.280;19.026;2024-01-30T02:02:43;148389.63;;;2.19;82.00
40920;BME280;26652;50.280;19.026;2024-01-30T02:04:45;148355.38;;;2.05;82.17
40920;BME280;26652;50.280;19.026;2024-01-30T02:06:46;148392.06;;;2.20;82.21
40920;BME280;26652;50.280;19.026;2024-01-30T02:08:46;148285.56;;;1.76;82.79
40920;BME280;26652;50.280;19.026;2024-01-30T02:10:47;148299.03;;;1.82;83.78
40920;BME280;26652;50.280;19.026;2024-01-30T02:12:48;148323.53;;;1.92;82.99
40920;BME280;26652;50.280;19.026;2024-01-30T02:14:49;148275.78;;;1.72;83.62
40920;BME280;26652;50.280;19.026;2024-01-30T02:16:50;148257.41;;;1.64;83.93
40920;BME280;26652;50.280;19.026;2024-01-30T02:18:51;148256.19;;;1.64;83.51
40920;BME280;26652;50.280;19.026;2024-01-30T02:20:53;148299.03;;;1.82;83.22
40920;BME280;26652;50.280;19.026;2024-01-30T02:22:55;148283.13;;;1.75;82.71
40920;BME280;26652;50.280;19.026;2024-01-30T02:24:56;148259.84;;;1.66;83.50
40920;BME280;26652;50.280;19.026;2024-01-30T02:26:57;148265.97;;;1.68;84.13
40920;BME280;26652;50.280;19.026;2024-01-30T02:28:57;148278.22;;;1.73;84.59
40920;BME280;26652;50.280;19.026;2024-01-30T02:30:58;148295.38;;;1.80;84.62
40920;BME280;26652;50.280;19.026;2024-01-30T02:32:58;148311.28;;;1.87;84.39
40920;BME280;26652;50.280;19.026;2024-01-30T02:34:59;148248.84;;;1.61;84.48
40920;BME280;26652;50.280;19.026;2024-01-30T02:37:00;148258.63;;;1.65;84.47
40920;BME280;26652;50.280;19.026;2024-01-30T02:39:01;148272.09;;;1.71;84.63
40920;BME280;26652;50.280;19.026;2024-01-30T02:41:02;148286.78;;;1.77;84.89
40920;BME280;26652;50.280;19.026;2024-01-30T02:43:03;148257.41;;;1.64;84.88
40920;BME280;26652;50.280;19.026;2024-01-30T02:45:04;148192.50;;;1.38;85.38
40920;BME280;26652;50.280;19.026;2024-01-30T02:47:05;148236.59;;;1.56;85.73
40920;BME280;26652;50.280;19.026;2024-01-30T02:49:06;148154.56;;;1.22;87.32
40920;BME280;26652;50.280;19.026;2024-01-30T02:51:07;148164.34;;;1.26;87.87
40920;BME280;26652;50.280;19.026;2024-01-30T02:53:07;148192.50;;;1.38;87.23
40920;BME280;26652;50.280;19.026;2024-01-30T02:55:08;148153.34;;;1.21;86.85
40920;BME280;26652;50.280;19.026;2024-01-30T02:57:09;148137.44;;;1.15;87.95
40920;BME280;26652;50.280;19.026;2024-01-30T02:59:09;148123.97;;;1.09;88.01
40920;BME280;26652;50.280;19.026;2024-01-30T03:01:10;148131.31;;;1.12;88.09
40920;BME280;26652;50.280;19.026;2024-01-30T03:03:11;148104.44;;;1.01;87.80
40920;BME280;26652;50.280;19.026;2024-01-30T03:05:11;148119.06;;;1.07;88.41
40920;BME280;26652;50.280;19.026;2024-01-30T03:07:12;148134.97;;;1.14;89.39
40920;BME280;26652;50.280;19.026;2024-01-30T03:09:13;148081.19;;;0.91;89.88
40920;BME280;26652;50.280;19.026;2024-01-30T03:11:14;148097.09;;;0.98;88.94
40920;BME280;26652;50.280;19.026;2024-01-30T03:13:14;148070.19;;;0.87;88.94
40920;BME280;26652;50.280;19.026;2024-01-30T03:15:15;148057.94;;;0.82;88.97
40920;BME280;26652;50.280;19.026;2024-01-30T03:17:16;148098.31;;;0.98;89.47
40920;BME280;26652;50.280;19.026;2024-01-30T03:19:17;148121.53;;;1.08;89.11
40920;BME280;26652;50.280;19.026;2024-01-30T03:21:17;148119.06;;;1.07;88.62
40920;BME280;26652;50.280;19.026;2024-01-30T03:23:18;148153.34;;;1.21;88.32
40920;BME280;26652;50.280;19.026;2024-01-30T03:25:18;148128.88;;;1.11;88.27
40920;BME280;26652;50.280;19.026;2024-01-30T03:27:19;148114.19;;;1.05;88.16
40920;BME280;26652;50.280;19.026;2024-01-30T03:29:20;148142.34;;;1.17;87.31
40920;BME280;26652;50.280;19.026;2024-01-30T03:31:21;148073.84;;;0.88;87.31
40920;BME280;26652;50.280;19.026;2024-01-30T03:33:21;147995.53;;;0.56;88.49
40920;BME280;26652;50.280;19.026;2024-01-30T03:35:22;148005.31;;;0.60;90.40
40920;BME280;26652;50.280;19.026;2024-01-30T03:37:23;148035.91;;;0.73;89.81
40920;BME280;26652;50.280;19.026;2024-01-30T03:39:24;148048.16;;;0.78;89.29
40920;BME280;26652;50.280;19.026;2024-01-30T03:41:25;148078.75;;;0.90;88.99
40920;BME280;26652;50.280;19.026;2024-01-30T03:43:26;148076.28;;;0.89;89.70
40920;BME280;26652;50.280;19.026;2024-01-30T03:45:26;148093.41;;;0.96;89.11
40920;BME280;26652;50.280;19.026;2024-01-30T03:47:27;148083.63;;;0.92;88.02
40920;BME280;26652;50.280;19.026;2024-01-30T03:49:27;148132.53;;;1.13;88.83
40920;BME280;26652;50.280;19.026;2024-01-30T03:51:28;148168.03;;;1.27;88.25
40920;BME280;26652;50.280;19.026;2024-01-30T03:53:29;148149.66;;;1.20;87.92
40920;BME280;26652;50.280;19.026;2024-01-30T03:55:30;148158.25;;;1.23;87.44
40920;BME280;26652;50.280;19.026;2024-01-30T03:57:30;148138.66;;;1.15;86.89
40920;BME280;26652;50.280;19.026;2024-01-30T03:59:31;148168.03;;;1.27;87.41
40920;BME280;26652;50.280;19.026;2024-01-30T04:01:31;148136.22;;;1.14;86.88
40920;BME280;26652;50.280;19.026;2024-01-30T04:03:32;148141.09;;;1.16;86.78
40920;BME280;26652;50.280;19.026;2024-01-30T04:05:33;148158.25;;;1.23;86.79
40920;BME280;26652;50.280;19.026;2024-01-30T04:07:33;148192.50;;;1.38;86.48
40920;BME280;26652;50.280;19.026;2024-01-30T04:09:34;148132.53;;;1.13;86.84
40920;BME280;26652;50.280;19.026;2024-01-30T04:11:35;148122.75;;;1.09;87.75
40920;BME280;26652;50.280;19.026;2024-01-30T04:13:35;148147.22;;;1.19;86.70
40920;BME280;26652;50.280;19.026;2024-01-30T04:15:36;148139.88;;;1.16;86.87
40920;BME280;26652;50.280;19.026;2024-01-30T04:17:37;148177.81;;;1.31;87.93
40920;BME280;26652;50.280;19.026;2024-01-30T04:19:38;148219.44;;;1.49;87.31
40920;BME280;26652;50.280;19.026;2024-01-30T04:21:39;148183.94;;;1.34;87.10
40920;BME280;26652;50.280;19.026;2024-01-30T04:23:41;148209.66;;;1.45;87.30
40920;BME280;26652;50.280;19.026;2024-01-30T04:25:41;148209.66;;;1.45;87.62
40920;BME280;26652;50.280;19.026;2024-01-30T04:27:42;148209.66;;;1.45;87.27
40920;BME280;26652;50.280;19.026;2024-01-30T04:29:43;148213.31;;;1.46;86.73
40920;BME280;26652;50.280;19.026;2024-01-30T04:31:44;148197.41;;;1.40;86.72
40920;BME280;26652;50.280;19.026;2024-01-30T04:33:44;148215.78;;;1.47;86.53
40920;BME280;26652;50.280;19.026;2024-01-30T04:35:45;148217.00;;;1.48;86.70
40920;BME280;26652;50.280;19.026;2024-01-30T04:37:45;148207.19;;;1.44;86.72
40920;BME280;26652;50.280;19.026;2024-01-30T04:39:46;148204.75;;;1.43;86.25
40920;BME280;26652;50.280;19.026;2024-01-30T04:41:47;148212.09;;;1.46;86.52
40920;BME280;26652;50.280;19.026;2024-01-30T04:43:48;148204.75;;;1.43;86.18
40920;BME280;26652;50.280;19.026;2024-01-30T04:45:49;148198.63;;;1.40;86.17
40920;BME280;26652;50.280;19.026;2024-01-30T04:47:50;148179.06;;;1.32;86.64
40920;BME280;26652;50.280;19.026;2024-01-30T04:49:51;148210.88;;;1.45;86.53
40920;BME280;26652;50.280;19.026;2024-01-30T04:51:52;148223.13;;;1.50;86.57
40920;BME280;26652;50.280;19.026;2024-01-30T04:53:52;148231.69;;;1.54;86.03
40920;BME280;26652;50.280;19.026;2024-01-30T04:55:53;148214.56;;;1.47;85.17
40920;BME280;26652;50.280;19.026;2024-01-30T04:57:54;148217.00;;;1.48;85.53
40920;BME280;26652;50.280;19.026;2024-01-30T04:59:54;148231.69;;;1.54;85.55
40920;BME280;26652;50.280;19.026;2024-01-30T05:01:55;148239.03;;;1.57;85.47
40920;BME280;26652;50.280;19.026;2024-01-30T05:03:56;148230.47;;;1.53;85.13
40920;BME280;26652;50.280;19.026;2024-01-30T05:05:56;148250.06;;;1.61;84.53
40920;BME280;26652;50.280;19.026;2024-01-30T05:07:57;148267.19;;;1.69;84.79
40920;BME280;26652;50.280;19.026;2024-01-30T05:09:57;148270.88;;;1.70;83.57
40920;BME280;26652;50.280;19.026;2024-01-30T05:11:58;148247.59;;;1.60;83.13
40920;BME280;26652;50.280;19.026;2024-01-30T05:13:59;148224.34;;;1.51;83.70
40920;BME280;26652;50.280;19.026;2024-01-30T05:16:02;148205.97;;;1.43;83.37
40920;BME280;26652;50.280;19.026;2024-01-30T05:18:03;148187.63;;;1.36;84.27
40920;BME280;26652;50.280;19.026;2024-01-30T05:20:05;148125.19;;;1.10;85.77
40920;BME280;26652;50.280;19.026;2024-01-30T05:22:05;148127.63;;;1.11;86.39
40920;BME280;26652;50.280;19.026;2024-01-30T05:24:06;148089.75;;;0.95;86.80
40920;BME280;26652;50.280;19.026;2024-01-30T05:26:08;148086.06;;;0.93;87.79
40920;BME280;26652;50.280;19.026;2024-01-30T05:28:08;148114.19;;;1.05;86.50
40920;BME280;26652;50.280;19.026;2024-01-30T05:30:09;148086.06;;;0.93;87.02
40920;BME280;26652;50.280;19.026;2024-01-30T05:32:10;148082.41;;;0.92;86.39
40920;BME280;26652;50.280;19.026;2024-01-30T05:34:11;148040.81;;;0.75;86.74
40920;BME280;26652;50.280;19.026;2024-01-30T05:36:12;148059.16;;;0.82;87.04
40920;BME280;26652;50.280;19.026;2024-01-30T05:38:16;148073.84;;;0.88;87.05
40920;BME280;26652;50.280;19.026;2024-01-30T05:40:17;148097.09;;;0.98;87.43
40920;BME280;26652;50.280;19.026;2024-01-30T05:42:17;148108.09;;;1.03;87.66
40920;BME280;26652;50.280;19.026;2024-01-30T05:44:18;148138.66;;;1.15;87.47
40920;BME280;26652;50.280;19.026;2024-01-30T05:46:18;148170.47;;;1.28;87.02
40920;BME280;26652;50.280;19.026;2024-01-30T05:48:19;148165.59;;;1.26;86.61
40920;BME280;26652;50.280;19.026;2024-01-30T05:50:20;148214.56;;;1.47;85.89
40920;BME280;26652;50.280;19.026;2024-01-30T05:52:23;148236.59;;;1.56;85.54
40920;BME280;26652;50.280;19.026;2024-01-30T05:54:24;148209.66;;;1.45;85.41
40920;BME280;26652;50.280;19.026;2024-01-30T05:56:25;148235.38;;;1.55;85.01
40920;BME280;26652;50.280;19.026;2024-01-30T05:58:25;148219.44;;;1.49;85.12
40920;BME280;26652;50.280;19.026;2024-01-30T06:00:26;148202.31;;;1.42;85.32
40920;BME280;26652;50.280;19.026;2024-01-30T06:02:27;148187.63;;;1.36;85.65
40920;BME280;26652;50.280;19.026;2024-01-30T06:04:28;148170.47;;;1.28;84.86
40920;BME280;26652;50.280;19.026;2024-01-30T06:06:28;148191.28;;;1.37;84.81
40920;BME280;26652;50.280;19.026;2024-01-30T06:08:29;148192.50;;;1.38;85.18
40920;BME280;26652;50.280;19.026;2024-01-30T06:10:30;148214.56;;;1.47;84.75
40920;BME280;26652;50.280;19.026;2024-01-30T06:12:31;148241.47;;;1.58;84.20
40920;BME280;26652;50.280;19.026;2024-01-30T06:14:31;148272.09;;;1.71;83.65
40920;BME280;26652;50.280;19.026;2024-01-30T06:16:33;148221.91;;;1.50;83.92
40920;BME280;26652;50.280;19.026;2024-01-30T06:18:34;148241.47;;;1.58;83.66
40920;BME280;26652;50.280;19.026;2024-01-30T06:20:34;148212.09;;;1.46;84.11
40920;BME280;26652;50.280;19.026;2024-01-30T06:22:35;148231.69;;;1.54;83.71
40920;BME280;26652;50.280;19.026;2024-01-30T06:24:36;148262.28;;;1.67;83.40
40920;BME280;26652;50.280;19.026;2024-01-30T06:26:37;148281.88;;;1.75;82.66
40920;BME280;26652;50.280;19.026;2024-01-30T06:28:38;148274.53;;;1.72;81.97
40920;BME280;26652;50.280;19.026;2024-01-30T06:30:38;148310.06;;;1.86;82.04
40920;BME280;26652;50.280;19.026;2024-01-30T06:32:39;148284.34;;;1.76;81.82
40920;BME280;26652;50.280;19.026;2024-01-30T06:34:40;148305.16;;;1.84;81.78
40920;BME280;26652;50.280;19.026;2024-01-30T06:36:42;148306.38;;;1.85;81.95
40920;BME280;26652;50.280;19.026;2024-01-30T06:38:42;148279.44;;;1.74;81.89
40920;BME280;26652;50.280;19.026;2024-01-30T06:40:43;148279.44;;;1.74;82.08
40920;BME280;26652;50.280;19.026;2024-01-30T06:42:43;148302.72;;;1.83;81.58
40920;BME280;26652;50.280;19.026;2024-01-30T06:44:44;148295.38;;;1.80;81.67
40920;BME280;26652;50.280;19.026;2024-01-30T06:46:45;148312.50;;;1.87;81.56
40920;BME280;26652;50.280;19.026;2024-01-30T06:48:46;148288.00;;;1.77;81.47
40920;BME280;26652;50.280;19.026;2024-01-30T06:50:46;148290.47;;;1.78;81.50
40920;BME280;26652;50.280;19.026;2024-01-30T06:52:48;148318.63;;;1.90;81.80
40920;BME280;26652;50.280;19.026;2024-01-30T06:54:48;148324.75;;;1.92;81.71
40920;BME280;26652;50.280;19.026;2024-01-30T06:56:49;148299.03;;;1.82;80.91
40920;BME280;26652;50.280;19.026;2024-01-30T06:58:50;148343.13;;;2.00;81.19
40920;BME280;26652;50.280;19.026;2024-01-30T07:00:51;148367.56;;;2.10;80.83
40920;BME280;26652;50.280;19.026;2024-01-30T07:02:52;148368.78;;;2.11;80.41
40920;BME280;26652;50.280;19.026;2024-01-30T07:04:52;148329.66;;;1.94;79.88
40920;BME280;26652;50.280;19.026;2024-01-30T07:06:53;148344.34;;;2.01;80.23
40920;BME280;26652;50.280;19.026;2024-01-30T07:08:54;148318.63;;;1.90;80.37
40920;BME280;26652;50.280;19.026;2024-01-30T07:10:54;148378.59;;;2.15;80.33
40920;BME280;26652;50.280;19.026;2024-01-30T07:12:56;148393.28;;;2.21;80.14
40920;BME280;26652;50.280;19.026;2024-01-30T07:14:57;148361.50;;;2.08;79.98
40920;BME280;26652;50.280;19.026;2024-01-30T07:16:59;148368.78;;;2.11;80.23
40920;BME280;26652;50.280;19.026;2024-01-30T07:19:00;148383.50;;;2.17;79.69
40920;BME280;26652;50.280;19.026;2024-01-30T07:21:01;148392.06;;;2.20;79.34
40920;BME280;26652;50.280;19.026;2024-01-30T07:23:02;148396.97;;;2.22;79.53
40920;BME280;26652;50.280;19.026;2024-01-30T07:25:04;148403.09;;;2.25;79.18
40920;BME280;26652;50.280;19.026;2024-01-30T07:27:04;148415.34;;;2.30;78.54
40920;BME280;26652;50.280;19.026;2024-01-30T07:29:05;148409.22;;;2.27;79.14
40920;BME280;26652;50.280;19.026;2024-01-30T07:31:06;148416.56;;;2.30;78.52
40920;BME280;26652;50.280;19.026;2024-01-30T07:33:07;148432.50;;;2.37;79.00
40920;BME280;26652;50.280;19.026;2024-01-30T07:35:09;148426.38;;;2.35;78.75
40920;BME280;26652;50.280;19.026;2024-01-30T07:37:09;148428.81;;;2.36;78.83
40920;BME280;26652;50.280;19.026;2024-01-30T07:39:11;148465.56;;;2.51;78.65
40920;BME280;26652;50.280;19.026;2024-01-30T07:41:11;148481.50;;;2.57;78.07
40920;BME280;26652;50.280;19.026;2024-01-30T07:43:12;148508.47;;;2.69;77.90
40920;BME280;26652;50.280;19.026;2024-01-30T07:45:13;148528.06;;;2.77;76.75
40920;BME280;26652;50.280;19.026;2024-01-30T07:47:13;148559.94;;;2.90;76.50
40920;BME280;26652;50.280;19.026;2024-01-30T07:49:17;148566.06;;;2.92;76.48
40920;BME280;26652;50.280;19.026;2024-01-30T07:51:19;148564.84;;;2.92;76.54
40920;BME280;26652;50.280;19.026;2024-01-30T07:53:20;148564.84;;;2.92;75.91
40920;BME280;26652;50.280;19.026;2024-01-30T07:55:21;148569.75;;;2.94;76.39
40920;BME280;26652;50.280;19.026;2024-01-30T07:57:24;148567.28;;;2.93;75.67
40920;BME280;26652;50.280;19.026;2024-01-30T07:59:25;148573.41;;;2.95;76.29
40920;BME280;26652;50.280;19.026;2024-01-30T08:01:26;148567.28;;;2.93;75.26
40920;BME280;26652;50.280;19.026;2024-01-30T08:03:26;148567.28;;;2.93;75.93
40920;BME280;26652;50.280;19.026;2024-01-30T08:05:27;148588.13;;;3.02;75.32
40920;BME280;26652;50.280;19.026;2024-01-30T08:07:28;148619.94;;;3.15;74.83
40920;BME280;26652;50.280;19.026;2024-01-30T08:09:30;148591.81;;;3.03;75.08
40920;BME280;26652;50.280;19.026;2024-01-30T08:11:31;148597.94;;;3.06;73.97
40920;BME280;26652;50.280;19.026;2024-01-30T08:13:31;148611.41;;;3.11;74.49
40920;BME280;26652;50.280;19.026;2024-01-30T08:15:32;148623.63;;;3.16;74.89
40920;BME280;26652;50.280;19.026;2024-01-30T08:17:33;148639.56;;;3.23;74.04
40920;BME280;26652;50.280;19.026;2024-01-30T08:19:34;148646.94;;;3.26;73.99
40920;BME280;26652;50.280;19.026;2024-01-30T08:21:35;148648.16;;;3.26;73.65
40920;BME280;26652;50.280;19.026;2024-01-30T08:23:38;148657.97;;;3.31;74.60
40920;BME280;26652;50.280;19.026;2024-01-30T08:25:39;148702.09;;;3.49;73.72
40920;BME280;26652;50.280;19.026;2024-01-30T08:27:40;148692.28;;;3.45;73.03
40920;BME280;26652;50.280;19.026;2024-01-30T08:29:41;148702.09;;;3.49;73.63
40920;BME280;26652;50.280;19.026;2024-01-30T08:31:41;148676.34;;;3.38;72.98
40920;BME280;26652;50.280;19.026;2024-01-30T08:33:42;148705.78;;;3.50;72.85
40920;BME280;26652;50.280;19.026;2024-01-30T08:35:43;148753.59;;;3.70;72.34
40920;BME280;26652;50.280;19.026;2024-01-30T08:37:43;148762.19;;;3.74;72.13
40920;BME280;26652;50.280;19.026;2024-01-30T08:39:44;148887.25;;;4.25;70.88
40920;BME280;26652;50.280;19.026;2024-01-30T08:41:45;148927.75;;;4.42;70.09
40920;BME280;26652;50.280;19.026;2024-01-30T08:43:46;148970.72;;;4.60;68.92
40920;BME280;26652;50.280;19.026;2024-01-30T08:45:46;149046.81;;;4.91;68.21
40920;BME280;26652;50.280;19.026;2024-01-30T08:47:47;149094.69;;;5.11;66.65
40920;BME280;26652;50.280;19.026;2024-01-30T08:49:48;149156.03;;;5.37;66.71
40920;BME280;26652;50.280;19.026;2024-01-30T08:51:49;149183.06;;;5.48;65.46
40920;BME280;26652;50.280;19.026;2024-01-30T08:53:50;149205.16;;;5.57;65.39
40920;BME280;26652;50.280;19.026;2024-01-30T08:55:53;149103.28;;;5.15;65.37
40920;BME280;26652;50.280;19.026;2024-01-30T08:57:53;149131.47;;;5.26;65.81
40920;BME280;26652;50.280;19.026;2024-01-30T08:59:54;149105.75;;;5.16;64.88
40920;BME280;26652;50.280;19.026;2024-01-30T09:01:55;149117.97;;;5.21;64.77
40920;BME280;26652;50.280;19.026;2024-01-30T09:03:55;149097.16;;;5.12;65.77
40920;BME280;26652;50.280;19.026;2024-01-30T09:05:56;149083.63;;;5.07;65.87
40920;BME280;26652;50.280;19.026;2024-01-30T09:07:57;149097.16;;;5.12;64.46
40920;BME280;26652;50.280;19.026;2024-01-30T09:09:57;149084.88;;;5.07;65.18
40920;BME280;26652;50.280;19.026;2024-01-30T09:11:58;149142.53;;;5.31;64.77
40920;BME280;26652;50.280;19.026;2024-01-30T09:14:02;149154.81;;;5.36;64.00
40920;BME280;26652;50.280;19.026;2024-01-30T09:16:03;149158.50;;;5.38;64.71
40920;BME280;26652;50.280;19.026;2024-01-30T09:18:04;149190.41;;;5.51;63.80
40920;BME280;26652;50.280;19.026;2024-01-30T09:20:05;149211.31;;;5.59;63.58
40920;BME280;26652;50.280;19.026;2024-01-30T09:22:06;149194.09;;;5.52;62.79
40920;BME280;26652;50.280;19.026;2024-01-30T09:24:07;149208.84;;;5.58;63.84
40920;BME280;26652;50.280;19.026;2024-01-30T09:26:08;149179.38;;;5.46;63.71
40920;BME280;26652;50.280;19.026;2024-01-30T09:28:08;149208.84;;;5.58;63.69
40920;BME280;26652;50.280;19.026;2024-01-30T09:30:09;149203.94;;;5.56;63.62
40920;BME280;26652;50.280;19.026;2024-01-30T09:32:10;149210.06;;;5.59;63.04
40920;BME280;26652;50.280;19.026;2024-01-30T09:34:10;149240.78;;;5.72;63.63
40920;BME280;26652;50.280;19.026;2024-01-30T09:36:11;149192.88;;;5.52;62.99
40920;BME280;26652;50.280;19.026;2024-01-30T09:38:12;149210.06;;;5.59;62.91
40920;BME280;26652;50.280;19.026;2024-01-30T09:40:12;149248.16;;;5.75;62.91
40920;BME280;26652;50.280;19.026;2024-01-30T09:42:28;149276.41;;;5.86;62.89
40920;BME280;26652;50.280;19.026;2024-01-30T09:44:34;149301.03;;;5.97;62.48
40920;BME280;26652;50.280;19.026;2024-01-30T09:46:37;149256.75;;;5.78;61.87
40920;BME280;26652;50.280;19.026;2024-01-30T09:48:40;149257.97;;;5.79;62.99
40920;BME280;26652;50.280;19.026;2024-01-30T09:50:41;149286.28;;;5.90;62.10
40920;BME280;26652;50.280;19.026;2024-01-30T09:52:45;149291.19;;;5.93;62.43
40920;BME280;26652;50.280;19.026;2024-01-30T09:54:48;149275.19;;;5.86;61.52
40920;BME280;26652;50.280;19.026;2024-01-30T09:56:50;149255.53;;;5.78;62.08
40920;BME280;26652;50.280;19.026;2024-01-30T09:58:50;149283.81;;;5.89;61.92
40920;BME280;26652;50.280;19.026;2024-01-30T10:00:51;149313.31;;;6.02;61.56
40920;BME280;26652;50.280;19.026;2024-01-30T10:02:53;149339.13;;;6.12;61.39
40920;BME280;26652;50.280;19.026;2024-01-30T10:04:54;149331.75;;;6.09;60.88
40920;BME280;26652;50.280;19.026;2024-01-30T10:06:55;149335.44;;;6.11;60.87
40920;BME280;26652;50.280;19.026;2024-01-30T10:08:56;149363.69;;;6.22;60.28
40920;BME280;26652;50.280;19.026;2024-01-30T10:10:56;149331.75;;;6.09;60.43
40920;BME280;26652;50.280;19.026;2024-01-30T10:12:57;149342.78;;;6.14;60.35
40920;BME280;26652;50.280;19.026;2024-01-30T10:14:58;149325.59;;;6.07;59.79
40920;BME280;26652;50.280;19.026;2024-01-30T10:17:01;149326.81;;;6.07;59.68
40920;BME280;26652;50.280;19.026;2024-01-30T10:19:01;149337.88;;;6.12;59.46
40920;BME280;26652;50.280;19.026;2024-01-30T10:21:03;149385.75;;;6.32;60.13
40920;BME280;26652;50.280;19.026;2024-01-30T10:23:04;149373.47;;;6.27;59.50
40920;BME280;26652;50.280;19.026;2024-01-30T10:25:05;149368.56;;;6.24;58.43
40920;BME280;26652;50.280;19.026;2024-01-30T10:27:06;149374.69;;;6.27;59.01
40920;BME280;26652;50.280;19.026;2024-01-30T10:29:07;149366.16;;;6.23;58.94
40920;BME280;26652;50.280;19.026;2024-01-30T10:31:07;149367.31;;;6.24;58.82
40920;BME280;26652;50.280;19.026;2024-01-30T10:33:08;149373.47;;;6.27;59.02